Time;durP1;ratioP1;P1;durP2;ratioP2;P2;SDS_P1;SDS_P2;PMS_P1;PMS_P2;Temp;Humidity;BMP_temperature;BMP_pressure;BME280_temperature;BME280_humidity;BME280_pressure;Samples;Min_cycle;Max_cycle;Signal;HPM_P1;HPM_P2
2022/01/21 00:00:57;;;;;;;96.55;62.28;;;26.20;99.90;;;;;;5034805;28;20033;-70
2022/01/21 00:03:24;;;;;;;87.43;61.55;;;26.10;99.90;;;;;;5035469;28;20472;-70
2022/01/21 00:05:51;;;;;;;90.30;62.90;;;26.20;99.90;;;;;;5035734;28;20079;-69
2022/01/21 00:08:17;;;;;;;101.05;65.78;;;26.20;99.90;;;;;;5035139;28;20060;-69
2022/01/21 00:10:44;;;;;;;101.38;66.32;;;26.20;99.90;;;;;;5034333;28;20036;-69
2022/01/21 00:13:20;;;;;;;98.22;63.28;;;26.40;99.90;;;;;;5035284;28;20025;-70
2022/01/21 00:15:47;;;;;;;92.15;60.17;;;26.30;99.90;;;;;;5034660;28;20040;-70
2022/01/21 00:18:13;;;;;;;86.70;61.97;;;26.40;99.90;;;;;;5035181;28;20018;-70
2022/01/21 00:31:13;;;;;;;119.97;84.07;;;26.40;99.90;;;;;;5033430;28;20521;-70
2022/01/21 00:33:40;;;;;;;132.00;95.85;;;26.50;99.90;;;;;;5034451;28;20033;-69
2022/01/21 00:36:08;;;;;;;100.40;75.28;;;26.50;99.90;;;;;;5035045;28;20034;-69
2022/01/21 00:38:35;;;;;;;124.18;90.40;;;26.60;99.90;;;;;;5034332;28;20361;-69
2022/01/21 00:41:05;;;;;;;108.40;72.22;;;26.70;99.90;;;;;;5034593;28;20044;-69
2022/01/21 00:43:43;;;;;;;104.45;75.32;;;26.70;99.90;;;;;;5034723;28;20017;-69
2022/01/21 00:46:12;;;;;;;159.55;114.82;;;26.70;99.90;;;;;;5033612;28;20514;-70
2022/01/21 00:48:39;;;;;;;93.55;64.13;;;26.70;99.90;;;;;;5034487;28;20036;-70
2022/01/21 00:51:06;;;;;;;114.18;76.85;;;26.80;99.90;;;;;;5034921;28;20036;-70
2022/01/21 00:53:33;;;;;;;110.65;74.97;;;26.90;99.90;;;;;;5034385;28;20036;-69
2022/01/21 00:56:00;;;;;;;89.05;58.22;;;27.00;99.90;;;;;;5034503;28;20021;-68
2022/01/21 00:58:27;;;;;;;86.63;59.17;;;27.00;99.90;;;;;;5034413;28;20051;-69
2022/01/21 01:00:53;;;;;;;81.68;49.15;;;27.00;99.90;;;;;;5034127;28;20025;-68
2022/01/21 01:03:20;;;;;;;77.45;47.78;;;27.10;99.90;;;;;;5034817;28;20033;-69
2022/01/21 01:05:51;;;;;;;70.80;46.35;;;27.10;99.90;;;;;;5033659;28;20499;-68
2022/01/21 01:08:18;;;;;;;62.70;39.60;;;27.10;99.90;;;;;;5034181;28;20057;-68
2022/01/21 01:21:08;;;;;;;60.13;35.10;;;27.10;99.90;;;;;;5033769;28;20156;-72
2022/01/21 01:23:51;;;;;;;73.05;42.95;;;27.10;99.90;;;;;;5033884;28;20033;-69
2022/01/21 01:28:56;;;;;;;54.72;32.38;;;27.20;99.90;;;;;;5033613;28;20026;-70
2022/01/21 01:31:22;;;;;;;63.05;34.75;;;27.20;99.90;;;;;;5032769;28;20022;-71
2022/01/21 01:33:49;;;;;;;410.40;299.70;;;27.20;99.90;;;;;;5034146;28;20539;-70
2022/01/21 01:36:16;;;;;;;83.90;48.00;;;27.30;99.90;;;;;;5033796;28;20306;-71
2022/01/21 01:41:25;;;;;;;51.80;30.88;;;27.40;99.90;;;;;;5033146;28;20126;-70
2022/01/21 01:51:47;;;;;;;39.08;16.25;;;27.50;99.90;;;;;;5033128;28;20040;-70
2022/01/21 01:54:16;;;;;;;46.53;24.45;;;27.60;99.90;;;;;;5033408;28;20029;-69
2022/01/21 01:56:47;;;;;;;54.83;27.98;;;27.60;99.90;;;;;;5030723;28;20029;-71
2022/01/21 01:59:14;;;;;;;123.45;75.20;;;27.70;99.90;;;;;;5033027;28;20109;-71
2022/01/21 02:01:41;;;;;;;55.63;25.98;;;27.80;99.90;;;;;;5033133;28;20037;-70
2022/01/21 02:04:08;;;;;;;40.40;19.65;;;27.90;99.90;;;;;;5033127;28;20029;-74
2022/01/21 02:06:35;;;;;;;50.05;20.40;;;28.00;99.90;;;;;;5032966;28;20026;-74
2022/01/21 02:09:05;;;;;;;39.00;16.88;;;28.10;99.90;;;;;;5032937;28;20049;-74
2022/01/21 02:11:32;;;;;;;33.70;16.65;;;28.10;99.90;;;;;;5033560;28;20095;-74
2022/01/21 02:14:01;;;;;;;37.08;16.27;;;28.20;99.90;;;;;;5033189;28;20029;-74
2022/01/21 02:21:40;;;;;;;30.90;12.02;;;28.60;99.90;;;;;;5031944;28;20026;-74
2022/01/21 02:24:10;;;;;;;30.92;10.75;;;28.70;99.90;;;;;;5033510;28;20101;-73
2022/01/21 02:26:38;;;;;;;35.15;11.95;;;28.80;99.90;;;;;;5032925;28;20021;-73
2022/01/21 02:29:06;;;;;;;39.83;22.75;;;28.80;99.90;;;;;;5035560;28;20040;-72
2022/01/21 02:31:35;;;;;;;84.68;63.03;;;28.80;99.90;;;;;;5051890;28;20441;-73
2022/01/21 02:34:04;;;;;;;41.05;19.13;;;28.80;99.90;;;;;;5053383;28;20048;-71
2022/01/21 02:36:31;;;;;;;29.17;12.70;;;28.80;99.90;;;;;;5053397;28;20509;-70
2022/01/21 02:38:57;;;;;;;25.25;11.48;;;28.80;99.90;;;;;;5038212;28;20024;-70
2022/01/21 02:41:24;;;;;;;34.50;11.60;;;28.90;99.90;;;;;;5033311;28;20029;-70
2022/01/21 02:43:52;;;;;;;30.27;11.00;;;29.00;99.90;;;;;;5033111;28;20068;-71
2022/01/21 02:46:22;;;;;;;35.03;11.90;;;28.90;99.90;;;;;;5033123;28;20028;-71
2022/01/21 02:48:50;;;;;;;34.00;11.82;;;28.80;99.90;;;;;;5033162;28;20108;-70
2022/01/21 02:51:17;;;;;;;37.95;12.65;;;28.90;99.90;;;;;;5036357;28;20099;-70
2022/01/21 02:56:17;;;;;;;32.03;12.55;;;29.10;99.90;;;;;;5036745;28;20387;-71
2022/01/21 02:58:45;;;;;;;26.08;12.75;;;29.10;99.90;;;;;;5036612;28;20029;-71
2022/01/21 03:01:15;;;;;;;27.20;12.38;;;29.20;99.90;;;;;;5036220;28;20028;-70
2022/01/21 03:03:44;;;;;;;38.70;19.27;;;29.20;99.90;;;;;;5036753;28;20028;-71
2022/01/21 03:06:15;;;;;;;34.25;16.98;;;29.30;99.90;;;;;;5035768;28;20025;-70
2022/01/21 03:08:44;;;;;;;38.78;23.50;;;29.20;99.90;;;;;;5036128;28;20041;-70
2022/01/21 03:11:12;;;;;;;32.30;15.98;;;29.10;99.90;;;;;;5037581;28;20018;-70
2022/01/21 03:13:41;;;;;;;39.75;14.77;;;29.10;99.90;;;;;;5036181;28;20028;-70
2022/01/21 03:16:08;;;;;;;29.83;15.55;;;29.00;99.90;;;;;;5037707;28;20025;-70
2022/01/21 03:18:35;;;;;;;31.55;14.23;;;29.10;99.90;;;;;;5038085;28;20088;-71
2022/01/21 03:21:01;;;;;;;30.80;13.60;;;29.30;99.90;;;;;;5036385;28;20023;-70
2022/01/21 03:23:29;;;;;;;27.70;13.63;;;29.40;99.90;;;;;;5036615;28;20100;-74
2022/01/21 03:25:56;;;;;;;53.25;16.00;;;29.30;99.90;;;;;;5032441;28;20087;-75
2022/01/21 03:28:23;;;;;;;159.85;121.60;;;29.50;99.90;;;;;;5024806;28;20395;-69
2022/01/21 03:30:54;;;;;;;48.65;28.13;;;29.50;99.90;;;;;;5035600;28;20028;-72
2022/01/21 03:33:21;;;;;;;29.55;12.25;;;29.40;99.90;;;;;;5036104;28;20392;-69
2022/01/21 03:35:48;;;;;;;25.40;13.93;;;29.30;99.90;;;;;;5036174;28;20030;-67
2022/01/21 03:38:15;;;;;;;25.90;14.60;;;29.30;99.90;;;;;;5030260;28;20025;-70
2022/01/21 03:40:41;;;;;;;28.65;14.07;;;29.30;99.90;;;;;;5035886;28;20029;-68
2022/01/21 03:43:10;;;;;;;29.85;14.88;;;29.30;99.90;;;;;;5035451;28;20026;-69
2022/01/21 03:45:36;;;;;;;30.60;14.90;;;29.30;99.90;;;;;;5033264;28;20010;-69
2022/01/21 03:48:03;;;;;;;34.97;14.93;;;29.50;99.90;;;;;;5032954;28;20392;-68
2022/01/21 03:50:32;;;;;;;29.20;16.00;;;29.40;99.90;;;;;;5035793;28;20079;-68
2022/01/21 03:53:00;;;;;;;35.78;17.20;;;29.40;99.90;;;;;;5034708;28;20083;-69
2022/01/21 03:55:28;;;;;;;25.58;14.55;;;29.40;99.90;;;;;;5035077;28;20464;-70
2022/01/21 03:57:54;;;;;;;27.75;14.88;;;29.30;99.90;;;;;;5035236;28;20304;-71
2022/01/21 04:00:25;;;;;;;30.95;16.10;;;29.30;99.90;;;;;;5034957;28;20022;-69
2022/01/21 04:02:52;;;;;;;25.08;14.13;;;29.20;99.90;;;;;;5034411;28;20515;-70
2022/01/21 04:05:19;;;;;;;29.00;16.63;;;29.10;99.90;;;;;;5032746;28;20026;-71
2022/01/21 04:07:47;;;;;;;28.55;15.15;;;29.10;99.90;;;;;;5035411;28;20487;-71
2022/01/21 04:10:13;;;;;;;30.65;15.63;;;29.10;99.90;;;;;;5032584;28;20128;-65
2022/01/21 04:12:40;;;;;;;27.25;14.82;;;29.10;99.90;;;;;;5034154;28;20288;-66
2022/01/21 04:15:07;;;;;;;26.63;15.38;;;29.30;99.90;;;;;;5034133;28;20030;-65
2022/01/21 04:17:35;;;;;;;35.90;18.48;;;29.30;99.90;;;;;;5034083;28;20045;-65
2022/01/21 04:20:03;;;;;;;29.17;16.73;;;29.40;99.90;;;;;;5034970;28;20037;-64
2022/01/21 04:22:30;;;;;;;28.73;15.55;;;29.50;99.90;;;;;;5034261;28;20017;-65
2022/01/21 04:24:57;;;;;;;25.33;14.52;;;29.50;99.90;;;;;;5030235;28;20030;-64
2022/01/21 04:27:24;;;;;;;29.15;15.80;;;29.50;99.90;;;;;;5034854;28;20029;-63
2022/01/21 04:29:50;;;;;;;35.67;15.68;;;29.60;99.90;;;;;;5030141;28;20030;-64
2022/01/21 04:32:17;;;;;;;27.13;14.60;;;29.60;99.90;;;;;;5030061;28;20033;-64
2022/01/21 04:34:44;;;;;;;34.28;16.45;;;29.70;99.90;;;;;;5034837;28;20044;-64
2022/01/21 04:37:12;;;;;;;33.53;14.85;;;29.80;99.90;;;;;;5030912;28;20092;-65
2022/01/21 04:39:47;;;;;;;24.48;14.85;;;29.70;99.90;;;;;;5028330;28;20079;-64
2022/01/21 04:47:31;;;;;;;41.17;16.70;;;29.60;99.90;;;;;;5033702;28;20035;-64
2022/01/21 04:49:58;;;;;;;28.40;16.83;;;29.60;99.90;;;;;;5034484;28;20391;-65
2022/01/21 04:52:26;;;;;;;52.72;29.20;;;29.60;99.90;;;;;;5033342;28;20037;-66
2022/01/21 04:54:53;;;;;;;39.33;17.75;;;29.60;99.90;;;;;;5033870;28;20026;-66
2022/01/21 04:57:20;;;;;;;90.88;43.42;;;29.70;99.90;;;;;;5033820;28;20028;-66
2022/01/21 06:44:07;;;;;;;157.43;115.55;;;27.70;99.90;;;;;;5130729;27;20473;-65
2022/01/21 06:46:34;;;;;;;44.88;31.75;;;27.70;99.90;;;;;;5127066;28;20116;-65
2022/01/21 06:49:01;;;;;;;32.13;19.25;;;27.90;99.90;;;;;;5129541;28;20038;-65
2022/01/21 06:51:27;;;;;;;26.10;18.27;;;28.10;99.90;;;;;;5123572;28;20028;-65
2022/01/21 06:53:55;;;;;;;39.45;25.38;;;28.40;99.90;;;;;;5126919;28;20028;-65
2022/01/21 06:56:22;;;;;;;51.83;36.33;;;28.50;99.90;;;;;;5124987;28;20521;-64
2022/01/21 06:58:48;;;;;;;51.50;35.90;;;28.70;99.90;;;;;;5119279;27;20429;-65
2022/01/21 07:01:15;;;;;;;25.80;14.38;;;28.80;99.90;;;;;;5118397;27;20384;-66
2022/01/21 07:03:42;;;;;;;27.63;15.55;;;28.80;99.90;;;;;;5131588;27;20034;-65
2022/01/21 07:06:09;;;;;;;27.08;14.73;;;28.90;99.90;;;;;;5124170;27;20077;-65
2022/01/21 07:08:35;;;;;;;25.13;14.95;;;28.90;99.90;;;;;;5113776;27;20020;-66
2022/01/21 07:11:02;;;;;;;28.70;15.20;;;29.00;99.90;;;;;;5119404;28;20023;-65
2022/01/21 07:13:29;;;;;;;30.77;18.10;;;29.10;99.90;;;;;;5126530;28;20110;-67
2022/01/21 07:15:55;;;;;;;33.38;16.95;;;29.20;99.90;;;;;;5128274;27;20127;-67
2022/01/21 07:18:22;;;;;;;60.85;42.88;;;29.20;99.90;;;;;;5125639;28;20104;-66
2022/01/21 07:20:49;;;;;;;135.68;98.95;;;29.30;99.90;;;;;;5123302;28;20023;-66
2022/01/21 07:23:15;;;;;;;41.13;29.73;;;29.30;99.90;;;;;;5129771;27;20055;-66
2022/01/21 07:25:42;;;;;;;39.72;23.48;;;29.30;99.90;;;;;;5128210;28;20019;-66
2022/01/21 07:28:09;;;;;;;31.90;17.77;;;29.30;99.90;;;;;;5114886;27;20099;-65
2022/01/21 07:30:36;;;;;;;23.92;12.73;;;29.30;99.90;;;;;;5119622;28;20068;-65
2022/01/21 07:33:02;;;;;;;32.15;14.40;;;29.30;99.90;;;;;;5128296;27;20039;-66
2022/01/21 07:35:29;;;;;;;64.25;43.13;;;29.30;99.90;;;;;;5118863;28;20050;-67
2022/01/21 07:37:56;;;;;;;52.83;40.38;;;29.30;99.90;;;;;;5131182;27;20072;-67
2022/01/21 07:40:23;;;;;;;25.10;11.45;;;29.40;99.90;;;;;;5118514;27;20062;-67
2022/01/21 07:42:49;;;;;;;21.35;10.73;;;29.30;99.90;;;;;;5119150;28;20047;-67
2022/01/21 07:45:16;;;;;;;21.77;10.13;;;29.40;99.90;;;;;;5117069;27;20098;-67
2022/01/21 07:47:43;;;;;;;29.65;12.25;;;29.40;99.90;;;;;;5119248;28;20076;-66
2022/01/21 07:50:09;;;;;;;22.70;12.13;;;29.40;99.90;;;;;;5119344;27;20035;-67
2022/01/21 07:52:36;;;;;;;21.98;10.95;;;29.40;99.90;;;;;;5115995;28;20589;-66
2022/01/21 07:55:03;;;;;;;25.08;11.68;;;29.30;99.90;;;;;;5118273;27;20042;-65
2022/01/21 07:57:30;;;;;;;22.52;11.25;;;29.20;99.90;;;;;;5115346;28;20035;-65
2022/01/21 07:59:57;;;;;;;19.77;10.85;;;29.20;99.90;;;;;;5106324;28;20149;-65
2022/01/21 08:02:25;;;;;;;21.30;11.48;;;29.20;99.90;;;;;;5113843;28;20032;-65
2022/01/21 08:04:54;;;;;;;22.58;10.90;;;29.30;99.90;;;;;;5106830;28;20408;-65
2022/01/21 08:07:21;;;;;;;20.55;10.50;;;29.30;99.90;;;;;;5110131;28;20027;-65
2022/01/21 08:09:49;;;;;;;23.67;10.90;;;29.30;99.90;;;;;;5111860;28;20035;-66
2022/01/21 08:12:18;;;;;;;22.00;10.82;;;29.30;99.90;;;;;;5106898;28;20039;-66
2022/01/21 08:14:45;;;;;;;21.73;10.43;;;29.30;99.90;;;;;;5108915;28;20038;-65
2022/01/21 08:17:12;;;;;;;22.38;10.27;;;29.20;99.90;;;;;;5103905;28;20028;-67
2022/01/21 08:19:39;;;;;;;23.30;9.00;;;29.20;99.90;;;;;;5112795;28;20020;-67
2022/01/21 08:22:06;;;;;;;22.92;11.18;;;29.10;99.90;;;;;;5102359;28;20321;-66
2022/01/21 08:24:32;;;;;;;20.40;10.20;;;29.10;99.90;;;;;;5115022;28;20471;-66
2022/01/21 08:26:59;;;;;;;21.38;10.80;;;29.00;99.90;;;;;;5116260;28;20111;-66
2022/01/21 08:29:26;;;;;;;27.42;10.93;;;29.00;99.90;;;;;;5112715;28;20093;-65
2022/01/21 08:31:54;;;;;;;233.05;162.73;;;29.00;99.90;;;;;;5107990;28;20364;-66
2022/01/21 08:34:21;;;;;;;40.65;24.63;;;29.00;99.90;;;;;;5100796;28;20080;-65
2022/01/21 08:36:49;;;;;;;30.58;16.27;;;29.00;99.90;;;;;;5114569;28;20020;-67
2022/01/21 08:39:17;;;;;;;65.10;39.33;;;29.10;99.90;;;;;;5110430;28;20073;-65
2022/01/21 08:41:44;;;;;;;67.70;40.45;;;29.10;99.90;;;;;;5104241;28;20357;-65
2022/01/21 08:44:10;;;;;;;156.45;105.55;;;29.10;99.90;;;;;;5116088;28;20411;-65
2022/01/21 08:46:37;;;;;;;86.40;55.67;;;29.10;99.90;;;;;;5106324;28;20468;-65
2022/01/21 08:49:08;;;;;;;54.17;34.60;;;29.10;99.90;;;;;;5104741;28;20028;-66
2022/01/21 08:51:56;;;;;;;29.25;14.75;;;29.00;99.90;;;;;;5095492;28;20028;-65
2022/01/21 08:54:22;;;;;;;24.80;12.27;;;29.00;99.90;;;;;;5097189;28;20020;-66
2022/01/21 08:56:51;;;;;;;23.65;12.75;;;29.00;99.90;;;;;;5098089;28;20032;-66
2022/01/21 08:59:18;;;;;;;26.42;13.30;;;28.90;99.90;;;;;;5095411;28;20032;-66
2022/01/21 09:01:47;;;;;;;33.58;14.00;;;28.90;99.90;;;;;;5096197;28;20055;-65
2022/01/21 09:04:14;;;;;;;27.48;15.57;;;28.90;99.90;;;;;;5116131;28;20417;-65
2022/01/21 09:06:41;;;;;;;26.00;13.05;;;28.90;99.90;;;;;;5114508;28;20491;-66
2022/01/21 09:09:08;;;;;;;32.65;18.08;;;28.90;99.90;;;;;;5115219;28;20145;-66
2022/01/21 09:11:34;;;;;;;30.95;14.90;;;28.90;99.90;;;;;;5098128;27;20503;-67
2022/01/21 09:14:02;;;;;;;43.03;22.05;;;28.80;99.90;;;;;;5096349;28;20036;-66
2022/01/21 09:16:29;;;;;;;53.17;26.40;;;28.80;99.90;;;;;;5103074;28;20024;-69
2022/01/21 09:18:58;;;;;;;64.75;34.05;;;28.70;99.90;;;;;;5105371;28;20516;-66
2022/01/21 09:21:28;;;;;;;60.15;31.65;;;28.60;99.90;;;;;;5095437;28;20024;-64
2022/01/21 09:23:56;;;;;;;56.80;37.38;;;28.60;99.90;;;;;;5108991;28;20020;-64
2022/01/21 09:26:25;;;;;;;59.80;33.40;;;28.40;99.90;;;;;;5115233;28;20081;-64
2022/01/21 09:28:52;;;;;;;40.60;25.95;;;28.30;99.90;;;;;;5113842;28;20388;-65
2022/01/21 09:31:19;;;;;;;34.28;17.55;;;28.30;99.90;;;;;;5114131;28;20074;-65
2022/01/21 09:33:46;;;;;;;36.53;17.88;;;28.30;99.90;;;;;;5105745;28;20036;-64
2022/01/21 09:36:13;;;;;;;32.13;17.23;;;28.30;99.90;;;;;;5109752;28;20425;-64
2022/01/21 09:38:41;;;;;;;79.80;51.35;;;28.30;99.90;;;;;;5114662;28;20023;-63
2022/01/21 09:41:09;;;;;;;56.40;34.97;;;28.30;99.90;;;;;;5113708;28;20353;-65
2022/01/21 09:43:38;;;;;;;67.20;34.70;;;28.30;99.90;;;;;;5113530;28;20051;-64
2022/01/21 09:46:07;;;;;;;68.22;34.65;;;28.30;99.90;;;;;;5099225;28;20027;-66
2022/01/21 09:48:49;;;;;;;56.50;27.95;;;28.20;99.90;;;;;;5098820;28;20042;-64
2022/01/21 09:51:16;;;;;;;47.25;26.25;;;28.20;99.90;;;;;;5100668;28;20480;-67
2022/01/21 09:53:44;;;;;;;49.55;26.92;;;28.20;99.90;;;;;;5103152;28;20387;-68
2022/01/21 09:56:14;;;;;;;43.38;25.05;;;28.20;99.90;;;;;;5113338;28;20032;-66
2022/01/21 09:58:45;;;;;;;52.05;25.77;;;28.20;99.90;;;;;;5107756;28;20020;-67
2022/01/21 10:01:12;;;;;;;42.92;24.75;;;28.20;99.90;;;;;;5096678;28;20118;-66
2022/01/21 10:03:43;;;;;;;50.47;26.70;;;28.00;99.90;;;;;;5101116;28;20032;-67
2022/01/21 10:06:11;;;;;;;48.00;26.92;;;28.00;99.90;;;;;;5108821;28;20031;-66
2022/01/21 10:08:41;;;;;;;46.08;27.80;;;28.10;99.90;;;;;;5110403;28;20020;-67
2022/01/21 10:11:09;;;;;;;54.90;29.83;;;28.20;99.90;;;;;;5108402;28;20380;-66
2022/01/21 10:13:37;;;;;;;58.22;31.42;;;28.10;99.90;;;;;;5109000;28;20112;-67
2022/01/21 10:16:05;;;;;;;57.95;31.70;;;28.10;99.90;;;;;;5093873;28;20444;-66
2022/01/21 10:37:26;;;;;;;55.13;30.80;;;28.10;99.90;;;;;;5098742;28;20062;-67
2022/01/21 10:40:04;;;;;;;111.13;78.35;;;28.00;99.90;;;;;;5110211;28;20036;-66
2022/01/21 10:42:32;;;;;;;50.67;28.27;;;27.90;99.90;;;;;;5100808;28;20446;-66
2022/01/21 10:44:59;;;;;;;35.80;16.08;;;27.90;99.90;;;;;;5109636;28;20088;-66
2022/01/21 10:47:30;;;;;;;31.42;15.07;;;27.80;99.90;;;;;;5109540;28;20020;-69
2022/01/21 10:50:06;;;;;;;30.52;16.60;;;27.80;99.90;;;;;;5113510;28;20022;-64
2022/01/21 10:52:37;;;;;;;35.63;16.52;;;27.80;99.90;;;;;;5113342;28;20026;-66
2022/01/21 10:55:25;;;;;;;35.17;16.98;;;27.80;99.90;;;;;;5113619;28;20016;-64
2022/01/21 10:58:03;;;;;;;32.40;16.00;;;27.80;99.90;;;;;;5113862;28;20032;-64
2022/01/21 11:00:30;;;;;;;41.83;18.13;;;27.80;99.90;;;;;;5106734;28;20020;-65
2022/01/21 11:03:09;;;;;;;32.65;16.90;;;27.80;99.90;;;;;;5108195;28;20039;-65
2022/01/21 11:05:41;;;;;;;41.10;17.13;;;27.80;99.90;;;;;;5117149;28;20077;-67
2022/01/21 11:08:09;;;;;;;42.45;18.33;;;27.80;99.90;;;;;;5098009;28;20103;-66
2022/01/21 11:10:42;;;;;;;36.53;16.98;;;27.80;99.90;;;;;;5112306;28;20039;-64
2022/01/21 11:13:25;;;;;;;33.58;17.55;;;27.80;99.90;;;;;;5107984;28;20027;-64
2022/01/21 11:15:58;;;;;;;35.63;16.30;;;27.80;99.90;;;;;;5103632;28;20027;-64
2022/01/21 11:18:26;;;;;;;31.25;18.20;;;27.80;99.90;;;;;;5093255;28;20030;-65
2022/01/21 11:21:09;;;;;;;31.65;16.20;;;27.80;99.90;;;;;;5092955;28;20032;-65
2022/01/21 11:23:38;;;;;;;35.63;16.63;;;27.80;99.90;;;;;;5096088;28;20039;-65
2022/01/21 11:26:11;;;;;;;30.20;16.35;;;27.70;99.90;;;;;;5113525;28;20027;-65
2022/01/21 11:28:42;;;;;;;47.67;20.23;;;27.70;99.90;;;;;;5113818;28;20111;-65
2022/01/21 11:31:09;;;;;;;41.10;20.20;;;27.80;99.90;;;;;;5117183;28;20406;-65
2022/01/21 11:33:36;;;;;;;40.88;19.20;;;27.80;99.90;;;;;;5099242;28;20028;-64
2022/01/21 11:36:05;;;;;;;42.40;19.45;;;27.80;99.90;;;;;;5097018;28;20471;-65
2022/01/21 11:38:37;;;;;;;43.78;20.05;;;27.70;99.90;;;;;;5096745;28;20032;-65
2022/01/21 11:41:06;;;;;;;47.17;19.65;;;27.80;99.90;;;;;;5096840;28;20126;-66
2022/01/21 11:43:35;;;;;;;33.97;19.52;;;27.70;99.90;;;;;;5096422;28;20408;-65
2022/01/21 11:48:56;;;;;;;37.72;18.65;;;27.70;99.90;;;;;;5102431;28;20032;-66
2022/01/21 11:51:34;;;;;;;39.78;21.27;;;27.70;99.90;;;;;;5101287;28;20046;-66
2022/01/21 11:54:05;;;;;;;49.05;20.80;;;27.70;99.90;;;;;;5096787;28;20490;-65
2022/01/21 11:56:43;;;;;;;39.63;22.02;;;27.70;99.90;;;;;;5096984;28;20024;-66
2022/01/21 11:59:26;;;;;;;53.00;23.00;;;27.70;99.90;;;;;;5098676;28;20039;-66
2022/01/21 12:01:53;;;;;;;41.83;23.55;;;27.60;99.90;;;;;;5097337;28;20027;-65
2022/01/21 12:04:27;;;;;;;50.17;23.45;;;27.60;99.90;;;;;;5112883;28;20086;-66
2022/01/21 12:06:53;;;;;;;39.60;22.85;;;27.60;99.90;;;;;;5112403;28;20084;-66
2022/01/21 12:09:51;;;;;;;52.85;22.95;;;27.60;99.90;;;;;;5096309;28;20043;-65
2022/01/21 12:12:18;;;;;;;37.53;22.55;;;27.60;99.90;;;;;;5095733;28;20032;-65
2022/01/21 12:14:50;;;;;;;46.35;21.95;;;27.60;99.90;;;;;;5096080;28;20488;-64
2022/01/21 12:17:42;;;;;;;45.22;22.45;;;27.60;99.90;;;;;;5098088;28;20032;-64
2022/01/21 12:20:09;;;;;;;;;;;27.60;99.90;;;;;;5117058;28;20069;-63
2022/01/21 12:22:36;;;;;;;38.47;19.85;;;27.50;99.90;;;;;;5115744;28;19904;-63
2022/01/21 12:25:06;;;;;;;37.55;19.15;;;27.40;99.90;;;;;;5109893;28;20486;-64
2022/01/21 12:27:34;;;;;;;33.03;16.55;;;27.40;99.90;;;;;;5106173;28;20507;-65
2022/01/21 12:30:08;;;;;;;41.30;18.67;;;27.40;99.90;;;;;;5116481;28;20073;-66
2022/01/21 12:32:41;;;;;;;33.38;17.70;;;27.30;99.90;;;;;;5099254;28;20024;-66
2022/01/21 12:37:52;;;;;;;32.67;16.15;;;27.40;99.90;;;;;;5110966;27;20452;-64
2022/01/21 12:40:38;;;;;;;33.17;15.80;;;27.30;99.90;;;;;;5110724;28;20404;-64
2022/01/21 12:43:11;;;;;;;28.48;16.02;;;27.30;99.90;;;;;;5107825;28;20147;-64
2022/01/21 12:45:38;;;;;;;39.72;17.25;;;27.30;99.90;;;;;;5107058;28;20058;-64
2022/01/21 12:48:31;;;;;;;34.47;14.98;;;27.30;99.90;;;;;;5110734;28;20543;-65
2022/01/21 12:51:00;;;;;;;125.68;80.10;;;27.20;99.90;;;;;;5110776;28;20035;-64
2022/01/21 12:53:34;;;;;;;116.60;69.80;;;27.20;99.90;;;;;;5110691;28;20472;-64
2022/01/21 12:56:06;;;;;;;76.82;43.10;;;27.20;99.90;;;;;;5110768;28;20024;-64
2022/01/21 12:58:40;;;;;;;150.88;88.07;;;27.20;99.90;;;;;;5100044;28;20050;-65
2022/01/21 13:01:09;;;;;;;147.82;87.45;;;27.20;99.90;;;;;;5103951;28;20032;-64
2022/01/21 13:03:44;;;;;;;158.30;99.00;;;27.20;99.90;;;;;;5097313;28;20023;-64
2022/01/21 13:06:14;;;;;;;140.73;91.45;;;27.20;99.90;;;;;;5110054;28;20447;-65
2022/01/21 13:08:52;;;;;;;90.88;57.58;;;27.20;99.90;;;;;;5106667;28;20381;-65
2022/01/21 13:11:24;;;;;;;47.70;20.25;;;27.30;99.90;;;;;;5107045;28;20081;-65
2022/01/21 13:16:52;;;;;;;73.53;41.45;;;27.30;99.90;;;;;;5107904;28;20081;-64
2022/01/21 13:19:19;;;;;;;53.80;29.05;;;27.30;99.90;;;;;;5106631;28;20036;-70
2022/01/21 13:21:47;;;;;;;62.22;30.75;;;27.30;99.90;;;;;;5106782;28;20050;-65
2022/01/21 13:24:25;;;;;;;55.15;33.80;;;27.30;99.90;;;;;;5106545;28;20024;-65
2022/01/21 13:26:53;;;;;;;37.13;21.30;;;27.30;99.90;;;;;;5098813;28;20027;-64
2022/01/21 13:29:30;;;;;;;50.05;26.10;;;27.30;99.90;;;;;;5106060;28;20029;-65
2022/01/21 13:31:59;;;;;;;41.67;17.50;;;27.30;99.90;;;;;;5108379;28;20035;-65
2022/01/21 13:34:30;;;;;;;40.75;20.45;;;27.30;99.90;;;;;;5097988;28;20040;-66
2022/01/21 13:36:58;;;;;;;185.90;123.95;;;27.40;99.90;;;;;;5110051;28;20044;-64
2022/01/21 13:39:25;;;;;;;54.75;28.15;;;27.30;99.90;;;;;;5109982;28;20039;-67
2022/01/21 13:42:03;;;;;;;44.78;21.30;;;27.30;99.90;;;;;;5108351;28;20050;-67
2022/01/21 13:44:34;;;;;;;44.85;25.77;;;27.40;99.90;;;;;;5108451;28;20027;-67
2022/01/21 13:47:03;;;;;;;56.80;31.88;;;27.50;99.90;;;;;;5100928;28;20457;-65
2022/01/21 13:49:31;;;;;;;42.72;25.00;;;27.50;99.90;;;;;;5096718;28;20042;-66
2022/01/21 13:52:00;;;;;;;46.88;25.95;;;27.50;99.90;;;;;;5096705;28;20020;-67
2022/01/21 13:54:36;;;;;;;41.00;21.35;;;27.50;99.90;;;;;;5096306;28;20032;-67
2022/01/21 13:57:05;;;;;;;38.00;20.02;;;27.40;99.90;;;;;;5096215;28;20078;-67
2022/01/21 13:59:39;;;;;;;43.28;20.95;;;27.40;99.90;;;;;;5095720;28;20103;-67
2022/01/21 14:02:11;;;;;;;44.78;22.00;;;27.40;99.90;;;;;;5094642;28;20028;-67
2022/01/21 14:04:38;;;;;;;43.20;21.45;;;27.40;99.90;;;;;;5089161;28;20032;-67
2022/01/21 14:07:28;;;;;;;39.08;22.33;;;27.40;99.90;;;;;;5092037;28;20111;-67
2022/01/21 14:09:55;;;;;;;50.72;24.05;;;27.30;99.90;;;;;;5095368;28;20062;-66
2022/01/21 14:12:22;;;;;;;45.53;23.30;;;27.30;99.90;;;;;;5093466;28;20051;-67
2022/01/21 14:14:51;;;;;;;46.55;23.17;;;27.30;99.90;;;;;;5095411;28;20024;-67
2022/01/21 14:17:24;;;;;;;42.78;24.15;;;27.30;99.90;;;;;;5095342;28;20016;-68
2022/01/21 14:19:56;;;;;;;40.13;22.35;;;27.30;99.90;;;;;;5089758;28;20462;-67
2022/01/21 14:22:24;;;;;;;41.65;22.77;;;27.20;99.90;;;;;;5091831;28;20039;-67
2022/01/21 14:24:53;;;;;;;50.15;22.75;;;27.30;99.90;;;;;;5095244;28;20031;-67
2022/01/21 14:27:21;;;;;;;44.58;22.50;;;27.30;99.90;;;;;;5094977;28;20103;-67
2022/01/21 14:29:59;;;;;;;39.22;21.83;;;27.20;99.90;;;;;;5095306;28;20020;-66
2022/01/21 14:32:36;;;;;;;48.10;22.45;;;27.20;99.90;;;;;;5093179;28;20468;-66
2022/01/21 14:35:10;;;;;;;49.50;22.73;;;27.20;99.90;;;;;;5091233;28;20039;-66
2022/01/21 14:37:52;;;;;;;44.72;22.80;;;27.20;99.90;;;;;;5091231;28;20033;-65
2022/01/21 14:40:32;;;;;;;45.85;24.25;;;27.20;99.90;;;;;;5087561;28;20030;-68
2022/01/21 14:43:04;;;;;;;50.90;26.05;;;27.20;99.90;;;;;;5090828;28;20031;-69
2022/01/21 14:45:31;;;;;;;55.75;25.25;;;27.10;99.90;;;;;;5091437;28;20419;-71
2022/01/21 14:48:10;;;;;;;37.95;23.33;;;27.10;99.90;;;;;;5093418;28;20024;-69
2022/01/21 14:50:37;;;;;;;40.47;25.42;;;27.10;99.90;;;;;;5091322;28;20020;-67
2022/01/21 14:53:10;;;;;;;47.67;25.67;;;27.10;99.90;;;;;;5094958;28;20136;-67
2022/01/21 14:55:38;;;;;;;50.53;25.85;;;27.10;99.90;;;;;;5094103;28;20486;-68
2022/01/21 14:58:12;;;;;;;50.58;24.88;;;27.00;99.90;;;;;;5092350;28;20106;-74
2022/01/21 15:00:42;;;;;;;44.58;23.58;;;27.00;99.90;;;;;;5090140;28;20012;-67
2022/01/21 15:03:08;;;;;;;44.90;24.15;;;27.00;99.90;;;;;;5093340;28;20035;-67
2022/01/21 15:05:35;;;;;;;49.53;24.05;;;27.00;99.90;;;;;;5095934;28;20039;-67
2022/01/21 15:08:02;;;;;;;39.20;24.23;;;27.00;99.90;;;;;;5095749;28;20039;-68
2022/01/21 15:10:36;;;;;;;44.53;25.98;;;27.00;99.90;;;;;;5094322;28;20082;-67
2022/01/21 15:16:08;;;;;;;46.15;24.92;;;27.00;99.90;;;;;;5093472;28;20103;-68
2022/01/21 15:18:35;;;;;;;45.78;24.48;;;27.00;99.90;;;;;;5093418;28;20116;-68
2022/01/21 15:21:02;;;;;;;51.63;29.35;;;27.00;99.90;;;;;;5093800;28;20016;-67
2022/01/21 15:23:29;;;;;;;55.22;30.75;;;27.00;99.90;;;;;;5093438;28;20032;-67
2022/01/21 15:25:56;;;;;;;59.67;29.20;;;27.00;99.90;;;;;;5093727;28;20030;-67
2022/01/21 15:28:22;;;;;;;45.13;24.88;;;27.00;99.90;;;;;;5094048;28;20024;-67
2022/01/21 15:30:49;;;;;;;42.58;25.92;;;27.00;99.90;;;;;;5093629;28;20024;-67
2022/01/21 15:33:15;;;;;;;50.63;26.25;;;27.00;99.90;;;;;;5094040;28;20040;-66
2022/01/21 15:35:44;;;;;;;60.67;35.58;;;27.00;99.90;;;;;;5094146;28;20044;-68
2022/01/21 15:38:10;;;;;;;59.15;35.30;;;27.00;99.90;;;;;;5093625;28;20012;-68